Flight Track Log - Related Links

Times and Time Zones

All times are in EDT time to prevent confusion due to time zone crossing. See the UAL3767 flight status page for this flight to view local times or setup timezone preferences in your user account.

Time Position Orientation Groundspeed Altitude Reporting Facility
EDT Latitude Longitude Course Direction KTS MPH feet Rate Location/Type
Sun 05:35:06 PM 30.2897 -97.5508 97° East 228 262 5,000  Level Houston Center
Sun 05:36:09 PM 30.3053 -97.4617 79° East 277 319 7,300 2,352 Climbing Houston Center
Sun 05:37:11 PM 30.3161 -97.3694 82° East 288 331 9,900 2,177 Climbing Houston Center
Sun 05:38:13 PM 30.3286 -97.2706 82° East 307 353 11,800 1,645 Climbing Houston Center
Sun 05:39:00 PM 30.3333 -96.8993 90° East  Level FlightAware Approximate
Sun 05:39:15 PM 30.3456 -97.1372 82° East 353 406 13,300  Level Houston Center
Sun 05:40:00 PM 30.3286 -96.7527 97° East  Level FlightAware Approximate
Sun 05:40:17 PM 30.3486 -97.0108 88° East 394 453 15,000  Level Houston Center
Sun 05:42:21 PM 30.3319 -96.7525 94° East 405 466 18,400 1,581 Climbing Houston Center
Sun 05:43:23 PM 30.3244 -96.6175 94° East 416 479 19,900 1,452 Climbing Houston Center
Sun 05:44:25 PM 30.3147 -96.4789 95° East 427 491 21,400 1,452 Climbing Houston Center
Sun 05:45:27 PM 30.3050 -96.3144 94° East 437 503 22,900 1,355 Climbing Houston Center
Sun 05:46:29 PM 30.2953 -96.1708 94° East 444 511 24,200 1,258 Climbing Houston Center
Sun 05:47:31 PM 30.2886 -96.0197 93° East 446 513 25,500 1,152 Climbing Houston Center
Sun 05:48:34 PM 30.3108 -95.8792 80° East 442 509 26,600 1,008 Climbing Houston Center
Sun 05:49:36 PM 30.3444 -95.7394 74° East 446 513 27,600 871 Climbing Houston Center
Sun 05:50:38 PM 30.3789 -95.5975 74° East 453 521 28,400 774 Climbing Houston Center
Sun 05:51:40 PM 30.4133 -95.4522 75° East 461 531 29,200 726 Climbing Houston Center
Sun 05:52:42 PM 30.4456 -95.3067 76° East 467 537 29,900 677 Climbing Houston Center
Sun 05:53:44 PM 30.5042 -95.1347 68° East 476 548 30,600 629 Climbing Houston Center
Sun 05:54:46 PM 30.5617 -94.9961 64° Northeast 477 549 31,200 581 Climbing Houston Center
Sun 05:55:48 PM 30.6189 -94.8550 65° Northeast 483 556 31,800 677 Climbing Houston Center
Sun 05:56:50 PM 30.6775 -94.7142 64° Northeast 485 558 32,600 871 Climbing Houston Center
Sun 05:57:52 PM 30.7339 -94.5764 65° Northeast 477 549 33,600 1,065 Climbing Houston Center
Sun 05:58:54 PM 30.8008 -94.4131 64° Northeast 472 543 34,800 672 Climbing Houston Center
Sun 05:59:57 PM 30.8556 -94.2778 65° Northeast 467 537 35,000 96 Climbing Houston Center
Sun 06:00:59 PM 30.9067 -94.1503 65° Northeast 472 543 35,000  Level Houston Center
Sun 06:02:01 PM 30.9656 -94.0053 65° Northeast 487 560 35,000  Level Houston Center
Sun 06:03:03 PM 31.0383 -93.8272 64° Northeast 504 580 35,000  Level Houston Center
Sun 06:04:05 PM 31.0969 -93.6794 65° Northeast 503 579 35,000  Level Houston Center
Sun 06:05:07 PM 31.1556 -93.5314 65° Northeast 501 577 35,000  Level Houston Center
Sun 06:07:11 PM 31.2722 -93.2361 65° Northeast 499 574 35,000  Level Houston Center
Sun 06:08:13 PM 31.3311 -93.0892 65° Northeast 499 574 35,000  Level Houston Center
Sun 06:09:15 PM 31.4003 -92.9119 65° Northeast 498 573 35,000  Level Houston Center
Sun 06:10:17 PM 31.4575 -92.7625 66° East 503 579 35,000  Level Houston Center
Sun 06:11:20 PM 31.5169 -92.6136 65° Northeast 506 582 35,000  Level Houston Center
Sun 06:12:22 PM 31.5736 -92.4614 66° East 509 586 35,000  Level Houston Center
Sun 06:13:24 PM 31.6325 -92.3094 65° Northeast 510 587 35,000  Level Houston Center
Sun 06:14:26 PM 31.6914 -92.1558 66° East 515 593 35,000  Level Houston Center
Sun 06:15:28 PM 31.7556 -91.9831 66° East 515 593 35,000  Level Houston Center
Sun 06:16:30 PM 31.8144 -91.8292 66° East 516 594 35,000  Level Houston Center
Sun 06:17:32 PM 31.8719 -91.6758 66° East 514 592 35,000  Level Houston Center
Sun 06:18:34 PM 31.9297 -91.5200 66° East 517 595 35,000  Level Houston Center
Sun 06:19:36 PM 31.9986 -91.3331 66° East 518 596 35,000  Level Houston Center
Sun 06:20:38 PM 32.0569 -91.1783 66° East 518 596 35,000  Level Houston Center
Sun 06:21:40 PM 32.1144 -91.0222 66° East 518 596 35,000  Level Houston Center
Sun 06:22:44 PM 32.1803 -90.8433 66° East 516 594 35,000  Level Memphis Center
Sun 06:23:44 PM 32.2372 -90.6864 67° East 516 594 35,000  Level Memphis Center
Sun 06:24:44 PM 32.2939 -90.5319 67° East 516 594 35,000  Level Memphis Center
Sun 06:25:44 PM 32.3506 -90.3744 67° East 516 594 35,000  Level Memphis Center
Sun 06:26:44 PM 32.4067 -90.2194 67° East 516 594 35,000  Level Memphis Center
Sun 06:27:44 PM 32.4628 -90.0619 67° East 516 594 35,000  Level Memphis Center
Sun 06:28:44 PM 32.5208 -89.9039 66° East 511 588 35,000  Level Memphis Center
Sun 06:29:44 PM 32.5764 -89.7483 67° East 516 594 35,000  Level Memphis Center
Sun 06:30:44 PM 32.6278 -89.6025 67° East 516 594 35,000  Level Memphis Center
Sun 06:31:44 PM 32.6853 -89.4489 66° East 516 594 35,000  Level Memphis Center
Sun 06:32:44 PM 32.7403 -89.2878 68° East 516 594 35,000  Level Memphis Center
Sun 06:33:44 PM 32.7972 -89.1267 67° East 516 594 35,000  Level Memphis Center
Sun 06:34:44 PM 32.8500 -88.9725 68° East 516 594 35,000  Level Memphis Center
Sun 06:35:44 PM 32.9044 -88.8231 67° East 505 581 35,000  Level Memphis Center
Sun 06:36:44 PM 32.9528 -88.6786 68° East 481 554 35,000  Level Memphis Center
Sun 06:37:44 PM 33.0031 -88.5342 67° East 476 548 35,000  Level Memphis Center
Sun 06:38:44 PM 33.0528 -88.3844 68° East 476 548 35,000  Level Memphis Center
Sun 06:41:09 PM 33.1750 -88.0097 69° East 504 580 35,000  Level Atlanta Center
Sun 06:42:09 PM 33.2278 -87.8581 67° East 499 574 35,000  Level Atlanta Center
Sun 06:43:09 PM 33.2783 -87.7064 68° East 499 574 35,000  Level Atlanta Center
Sun 06:44:09 PM 33.3308 -87.5519 68° East 499 574 35,000 -350 Level Atlanta Center
Sun 06:45:09 PM 33.3811 -87.3947 69° East 499 574 34,300 -500 Descending Atlanta Center
Sun 06:46:09 PM 33.4375 -87.2375 67° East 504 580 34,000 -150 Descending Atlanta Center
Sun 06:47:09 PM 33.5183 -87.0961 56° Northeast 504 580 34,000  Level Atlanta Center
Sun 06:48:09 PM 33.6031 -86.9644 52° Northeast 504 580 34,000 -400 Level Atlanta Center
Sun 06:49:09 PM 33.6875 -86.8275 53° Northeast 504 580 33,200 -500 Descending Atlanta Center
Sun 06:50:09 PM 33.7556 -86.6772 61° Northeast 512 589 33,000 -100 Descending Atlanta Center
Sun 06:51:09 PM 33.8006 -86.5186 71° East 500 575 33,000  Level Atlanta Center
Sun 06:52:09 PM 33.8433 -86.3572 72° East 495 570 33,000  Level Atlanta Center
Sun 06:53:09 PM 33.8900 -86.1983 70° East 495 570 33,000  Level Atlanta Center
Sun 06:54:09 PM 33.9367 -86.0369 71° East 500 575 33,000  Level Atlanta Center
Sun 06:55:09 PM 33.9831 -85.8750 71° East 500 575 33,000  Level Atlanta Center
Sun 06:56:09 PM 34.0311 -85.7183 70° East 493 567 33,000  Level Atlanta Center
Sun 06:57:09 PM 34.0772 -85.5586 71° East 498 573 33,000  Level Atlanta Center
Sun 06:58:10 PM 34.1272 -85.3814 71° East 503 579 33,000  Level Atlanta Center
Sun 06:59:09 PM 34.1706 -85.2214 72° East 497 572 33,000  Level Atlanta Center
Sun 07:00:09 PM 34.2158 -85.0636 71° East 497 572 33,000  Level Atlanta Center
Sun 07:01:09 PM 34.2589 -84.9008 72° East 497 572 33,000  Level Atlanta Center
Sun 07:02:09 PM 34.3036 -84.7403 71° East 502 578 33,000  Level Atlanta Center
Sun 07:03:09 PM 34.3483 -84.5797 71° East 502 578 33,000  Level Atlanta Center
Sun 07:04:09 PM 34.3864 -84.4339 72° East 502 578 33,000 50 Level Atlanta Center
Sun 07:05:09 PM 34.4328 -84.2731 71° East 494 568 33,100  Climbing Atlanta Center
Sun 07:06:09 PM 34.4706 -84.1219 73° East 479 551 33,000 -50 Descending Atlanta Center
Sun 07:07:09 PM 34.5122 -83.9683 72° East 479 551 33,000  Level Atlanta Center
Sun 07:08:09 PM 34.5536 -83.8067 73° East 485 558 33,000  Level Atlanta Center
Sun 07:09:09 PM 34.6158 -83.6350 66° East 495 570 33,000  Level Atlanta Center
Sun 07:10:09 PM 34.6697 -83.5033 64° Northeast 500 575 33,000  Level Atlanta Center
Sun 07:11:09 PM 34.7356 -83.3461 63° Northeast 500 575 33,000  Level Atlanta Center
Sun 07:12:09 PM 34.8075 -83.1711 63° Northeast 517 595 33,000  Level Atlanta Center
Sun 07:13:09 PM 34.8711 -83.0133 64° Northeast 520 598 33,000  Level Atlanta Center
Sun 07:14:09 PM 34.9261 -82.8786 63° Northeast 512 589 33,000  Level Atlanta Center
Sun 07:15:09 PM 34.9914 -82.7178 64° Northeast 507 583 33,000  Level Atlanta Center
Sun 07:16:09 PM 35.0542 -82.5594 64° Northeast 512 589 33,000  Level Atlanta Center
Sun 07:17:09 PM 35.1147 -82.4061 64° Northeast 505 581 33,000  Level Atlanta Center
Sun 07:18:09 PM 35.1775 -82.2500 64° Northeast 505 581 33,000  Level Atlanta Center
Sun 07:19:09 PM 35.2375 -82.0961 64° Northeast 505 581 33,000  Level Atlanta Center
Sun 07:20:09 PM 35.2997 -81.9419 64° Northeast 505 581 33,000  Level Atlanta Center
Sun 07:21:09 PM 35.3656 -81.7747 64° Northeast 500 575 33,000  Level Atlanta Center
Sun 07:22:09 PM 35.4253 -81.6200 65° Northeast 500 575 33,000  Level Atlanta Center
Sun 07:23:09 PM 35.4828 -81.4681 65° Northeast 488 562 33,000  Level Atlanta Center
Sun 07:24:09 PM 35.5300 -81.3439 65° Northeast 488 562 33,000  Level Atlanta Center
Sun 07:25:09 PM 35.5989 -81.1528 66° East 493 567 33,000  Level Atlanta Center
Sun 07:26:09 PM 35.6558 -81.0128 63° Northeast 501 577 33,000  Level Atlanta Center
Sun 07:27:09 PM 35.7147 -80.8594 65° Northeast 494 568 33,000 -150 Level Atlanta Center
Sun 07:28:09 PM 35.7750 -80.7011 65° Northeast 482 555 32,700 -609 Descending Atlanta Center
Sun 07:30:26 PM 35.8931 -80.3867 65° Northeast 461 531 31,000 -515 Descending Washington Center
Sun 07:31:27 PM 35.9467 -80.2436 65° Northeast 476 548 31,000  Level Washington Center
Sun 07:32:27 PM 36.0003 -80.0953 66° East 471 542 31,000  Level Washington Center
Sun 07:33:27 PM 36.0619 -79.9525 62° Northeast 471 542 31,000  Level Washington Center
Sun 07:34:27 PM 36.1400 -79.8153 55° Northeast 476 548 31,000 -303 Level Washington Center
Sun 07:35:26 PM 36.2158 -79.6753 56° Northeast 489 563 30,400 -800 Descending Washington Center
Sun 07:36:27 PM 36.3022 -79.5250 54° Northeast 489 563 29,400 -992 Descending Washington Center
Sun 07:37:27 PM 36.3686 -79.4072 55° Northeast 473 544 28,400 -1,017 Descending Washington Center
Sun 07:38:25 PM 36.4483 -79.2611 56° Northeast 468 539 27,400 -1,008 Descending Washington Center
Sun 07:39:26 PM 36.5211 -79.1328 55° Northeast 461 531 26,400 -984 Descending Washington Center
Sun 07:40:27 PM 36.5933 -79.0094 54° Northeast 450 518 25,400 -694 Descending Washington Center
Sun 07:41:27 PM 36.6617 -78.8828 56° Northeast 445 512 25,000 -198 Descending Washington Center
Sun 07:42:28 PM 36.7211 -78.7714 56° Northeast 435 501 25,000  Level Washington Center
Sun 07:43:25 PM 36.7956 -78.6344 56° Northeast 430 495 25,000  Level Washington Center
Sun 07:44:26 PM 36.8675 -78.5075 55° Northeast 435 501 25,000 -197 Level Washington Center
Sun 07:45:27 PM 36.9353 -78.3828 56° Northeast 435 501 24,600 -694 Descending Washington Center
Sun 07:46:27 PM 37.0069 -78.2500 56° Northeast 442 509 23,600 -800 Descending Washington Center
Sun 07:47:27 PM 37.1008 -78.1594 38° Northeast 451 519 23,000 -300 Descending Washington Center
Sun 07:48:27 PM 37.2175 -78.0694 32° Northeast 446 513 23,000  Level Washington Center
Sun 07:49:28 PM 37.3233 -77.9867 32° Northeast 446 513 23,000  Level Washington Center
Sun 07:50:25 PM 37.4292 -77.9064 31° Northeast 446 513 23,000 -103 Level Washington Center
Sun 07:51:25 PM 37.5350 -77.8258 31° Northeast 440 506 22,800 -1,140 Descending Washington Center
Sun 07:52:26 PM 37.6469 -77.7583 26° Northeast 440 506 20,700 -2,033 Descending Washington Center
Sun 07:53:26 PM 37.7586 -77.6931 25° Northeast 435 501 18,700 -1,934 Descending Washington Center
Sun 07:54:27 PM 37.8639 -77.6328 24° Northeast 424 488 16,800 -2,017 Descending Washington Center
Sun 07:55:25 PM 37.9628 -77.5778 24° Northeast 407 468 14,700 -2,034 Descending Washington Center
Sun 07:56:25 PM 38.0428 -77.5322 24° Northeast 378 435 12,800 -2,000 Descending Washington Center
Sun 07:57:25 PM 38.1269 -77.4844 24° Northeast 347 399 10,700 -1,388 Descending Washington Center
Sun 07:58:26 PM 38.2028 -77.4361 27° Northeast 315 362 10,000 -836 Descending Washington Center
Sun 07:59:27 PM 38.2767 -77.3903 26° Northeast 296 341 9,000 -1,160 Descending Washington Center
Sun 08:00:25 PM 38.3542 -77.3578 18° North 291 335 7,700 -1,322 Descending Washington Center
Sun 08:01:25 PM 38.4333 -77.3597 359° North 281 323 6,400 -1,438 Descending Washington Center
Sun 08:02:26 PM 38.5208 -77.3642 358° North 281 323 4,800 -1,180 Descending Washington Center
Sun 08:03:27 PM 38.5958 -77.3661 359° North 281 323 4,000 -444 Descending Washington Center
Sun 08:04:14 PM 38.6667 -77.3667 360° North 260 299 4,000  Level Potomac TRACON
Sun 08:05:14 PM 38.7333 -77.3667 360° North 269 310 4,000  Level Potomac TRACON
Sun 08:06:08 PM 38.8000 -77.3500 11° North 274 315 4,000  Level Potomac TRACON
Sun 08:07:08 PM 38.8667 -77.3500 360° North 264 304 4,000  Level Potomac TRACON
Sun 08:08:14 PM 38.9500 -77.3500 360° North 257 296 4,000  Level Potomac TRACON
Sun 08:09:14 PM 39.0333 -77.3500 360° North 253 291 4,000 -150 Level Potomac TRACON
Sun 08:10:14 PM 39.0833 -77.3500 360° North 220 253 3,700 -500 Descending Potomac TRACON
Sun 08:11:14 PM 39.1333 -77.3667 346° North 212 244 3,000 -350 Descending Potomac TRACON
Sun 08:12:14 PM 39.1000 -77.4333 237° Southwest 212 244 3,000 -368 Level Potomac TRACON
Sun 08:13:08 PM 39.0500 -77.4500 195° South 195 224 2,300 -950 Descending Potomac TRACON
Sun 08:14:14 PM 39.0000 -77.4667 195° South 149 171 1,100 -1,091 Descending Potomac TRACON
Sun 08:16:00 PM 38.9474 -77.4599 191° South  Level Estimated
Sun 08:23:00 PM 38.9474 -77.4599 191° South  Level Estimated
Sun 08:24:00 PM 38.9474 -77.4599 191° South  Level Estimated
Sun 08:25:00 PM 38.9474 -77.4599 191° South  Level Estimated
Sun 08:26:00 PM 38.9474 -77.4599 191° South  Level Estimated

Login

Don't have an account? Register now (free) for customized features, flight alerts, and more!